createdAt,value
2023-06-29T00:00:13.109Z,16.79
2023-06-29T00:01:11.172Z,16.69
2023-06-29T00:02:11.083Z,16.69
2023-06-29T00:03:11.145Z,16.71
2023-06-29T00:04:11.101Z,16.75
2023-06-29T00:05:11.086Z,16.72
2023-06-29T00:06:11.083Z,16.70
2023-06-29T00:07:11.152Z,16.71
2023-06-29T00:08:11.087Z,16.70
2023-06-29T00:09:11.083Z,16.70
2023-06-29T00:10:11.092Z,16.71
2023-06-29T00:11:12.096Z,16.69
2023-06-29T00:12:11.094Z,16.67
2023-06-29T00:13:11.089Z,16.67
2023-06-29T00:14:11.091Z,16.64
2023-06-29T00:15:11.097Z,16.63
2023-06-29T00:16:11.121Z,16.67
2023-06-29T00:17:11.087Z,16.63
2023-06-29T00:18:11.087Z,16.62
2023-06-29T00:19:12.084Z,16.63
2023-06-29T00:20:14.241Z,16.64
2023-06-29T00:21:11.088Z,16.60
2023-06-29T00:22:11.085Z,16.61
2023-06-29T00:23:11.096Z,16.62
2023-06-29T00:24:11.105Z,16.64
2023-06-29T00:25:12.093Z,16.65
2023-06-29T00:26:11.092Z,16.68
2023-06-29T00:27:11.087Z,16.67
2023-06-29T00:28:11.096Z,16.64
2023-06-29T00:29:11.094Z,16.65
2023-06-29T00:30:11.098Z,16.62
2023-06-29T00:31:11.117Z,16.62
2023-06-29T00:32:11.108Z,16.63
2023-06-29T00:33:11.088Z,16.61
2023-06-29T00:34:11.085Z,16.58
2023-06-29T00:35:11.095Z,16.62
2023-06-29T00:36:11.093Z,16.63
2023-06-29T00:37:11.086Z,16.65
2023-06-29T00:38:11.088Z,16.66
2023-06-29T00:39:11.091Z,16.62
2023-06-29T00:40:11.084Z,16.53
2023-06-29T00:41:11.094Z,16.52
2023-06-29T00:42:11.087Z,16.52
2023-06-29T00:43:11.091Z,16.52
2023-06-29T00:44:11.119Z,16.56
2023-06-29T00:45:11.105Z,16.56
2023-06-29T00:46:12.129Z,16.57
2023-06-29T00:47:11.090Z,16.52
2023-06-29T00:48:11.153Z,16.52
2023-06-29T00:49:11.085Z,16.50
2023-06-29T00:50:11.091Z,16.51
2023-06-29T00:51:11.090Z,16.46
2023-06-29T00:52:11.101Z,16.46
2023-06-29T00:53:11.100Z,16.45
2023-06-29T00:54:11.090Z,16.43
2023-06-29T00:55:11.087Z,16.43
2023-06-29T00:56:11.088Z,16.41
2023-06-29T00:57:13.092Z,16.37
2023-06-29T00:58:11.089Z,16.39
2023-06-29T00:59:11.090Z,16.41
2023-06-29T01:00:11.096Z,16.43
2023-06-29T01:01:11.125Z,16.43
2023-06-29T01:02:11.064Z,16.41
2023-06-29T01:03:11.116Z,16.42
2023-06-29T01:04:11.062Z,16.41
2023-06-29T01:05:11.134Z,16.39
2023-06-29T01:06:14.065Z,16.36
2023-06-29T01:07:20.113Z,16.35
2023-06-29T01:08:21.064Z,16.32
2023-06-29T01:09:11.073Z,16.31
2023-06-29T01:10:13.068Z,16.26
2023-06-29T01:11:11.067Z,16.25
2023-06-29T01:12:11.077Z,16.23
2023-06-29T01:13:11.067Z,16.23
2023-06-29T01:14:12.076Z,16.21
2023-06-29T01:15:12.094Z,16.19
2023-06-29T01:16:11.097Z,16.13
2023-06-29T01:17:12.069Z,16.09
2023-06-29T01:18:12.100Z,16.01
2023-06-29T01:19:14.066Z,16.05
2023-06-29T01:20:11.072Z,16.04
2023-06-29T01:21:11.073Z,16.04
2023-06-29T01:22:21.111Z,16.06
2023-06-29T01:23:15.066Z,16.09
2023-06-29T01:24:12.069Z,16.10
2023-06-29T01:25:11.072Z,16.11
2023-06-29T01:26:12.065Z,16.10
2023-06-29T01:27:11.068Z,16.09
2023-06-29T01:28:11.098Z,16.08
2023-06-29T01:29:11.070Z,16.08
2023-06-29T01:30:11.112Z,16.06
2023-06-29T01:31:11.072Z,16.10
2023-06-29T01:32:12.066Z,16.05
2023-06-29T01:33:11.078Z,16.04
2023-06-29T01:34:11.072Z,16.03
2023-06-29T01:35:12.076Z,16.09
2023-06-29T01:36:18.087Z,16.08
2023-06-29T01:37:18.070Z,16.04
2023-06-29T01:38:19.076Z,16.08
2023-06-29T01:39:16.077Z,16.10
2023-06-29T01:40:14.075Z,16.07
2023-06-29T01:41:12.072Z,16.08
2023-06-29T01:42:11.098Z,16.08
2023-06-29T01:43:11.068Z,16.11
2023-06-29T01:44:12.088Z,16.02
2023-06-29T01:45:11.086Z,16.02
2023-06-29T01:46:11.203Z,16.06
2023-06-29T01:47:11.084Z,16.05
2023-06-29T01:48:11.086Z,16.02
2023-06-29T01:49:11.132Z,16.05
2023-06-29T01:50:11.079Z,16.06
2023-06-29T01:51:11.068Z,16.04
2023-06-29T01:52:11.068Z,16.01
2023-06-29T01:53:11.069Z,16.04
2023-06-29T01:54:11.075Z,16.01
2023-06-29T01:55:11.076Z,16.02
2023-06-29T01:56:11.068Z,16.00
2023-06-29T01:57:11.083Z,15.97
2023-06-29T01:58:11.075Z,15.99
2023-06-29T01:59:11.069Z,16.01
2023-06-29T02:00:11.097Z,16.02
2023-06-29T02:01:11.142Z,16.04
2023-06-29T02:02:11.076Z,16.06
2023-06-29T02:03:11.238Z,16.00
2023-06-29T02:04:11.073Z,15.96
2023-06-29T02:05:11.072Z,15.93
2023-06-29T02:06:11.067Z,15.95
2023-06-29T02:07:11.108Z,15.97
2023-06-29T02:08:11.072Z,16.01
2023-06-29T02:09:11.111Z,15.97
2023-06-29T02:10:11.076Z,16.03
2023-06-29T02:11:11.079Z,16.05
2023-06-29T02:12:11.074Z,16.07
2023-06-29T02:13:11.087Z,16.10
2023-06-29T02:14:11.073Z,16.08
2023-06-29T02:15:11.070Z,16.07
2023-06-29T02:16:11.129Z,16.05
2023-06-29T02:17:11.075Z,15.90
2023-06-29T02:18:11.079Z,15.87
2023-06-29T02:19:11.085Z,15.86
2023-06-29T02:20:11.076Z,15.81
2023-06-29T02:21:11.082Z,15.79
2023-06-29T02:22:11.087Z,15.82
2023-06-29T02:23:11.093Z,15.80
2023-06-29T02:24:11.077Z,15.83
2023-06-29T02:25:12.092Z,15.75
2023-06-29T02:26:11.082Z,15.78
2023-06-29T02:27:11.091Z,15.77
2023-06-29T02:28:11.091Z,15.71
2023-06-29T02:29:11.088Z,15.72
2023-06-29T02:30:11.077Z,15.71
2023-06-29T02:31:11.206Z,15.69
2023-06-29T02:32:11.074Z,15.65
2023-06-29T02:33:11.079Z,15.64
2023-06-29T02:34:11.084Z,15.63
2023-06-29T02:35:11.076Z,15.61
2023-06-29T02:36:11.080Z,15.59
2023-06-29T02:37:11.083Z,15.58
2023-06-29T02:38:11.074Z,15.60
2023-06-29T02:39:11.086Z,15.63
2023-06-29T02:40:11.094Z,15.65
2023-06-29T02:41:11.128Z,15.60
2023-06-29T02:42:11.091Z,15.57
2023-06-29T02:43:11.090Z,15.59
2023-06-29T02:44:11.076Z,15.62
2023-06-29T02:45:11.078Z,15.63
2023-06-29T02:46:11.124Z,15.67
2023-06-29T02:47:11.078Z,15.69
2023-06-29T02:48:11.080Z,15.71
2023-06-29T02:49:11.086Z,15.61
2023-06-29T02:50:11.091Z,15.63
2023-06-29T02:51:11.106Z,15.63
2023-06-29T02:52:11.111Z,15.59
2023-06-29T02:53:11.082Z,15.62
2023-06-29T02:54:11.076Z,15.66
2023-06-29T02:55:11.093Z,15.59
2023-06-29T02:56:11.081Z,15.54
2023-06-29T02:57:11.095Z,15.58
2023-06-29T02:58:11.085Z,15.61
2023-06-29T02:59:11.094Z,15.64
2023-06-29T03:00:11.077Z,15.59
2023-06-29T03:01:11.156Z,15.60
2023-06-29T03:02:11.110Z,15.61
2023-06-29T03:03:11.269Z,15.63
2023-06-29T03:04:11.094Z,15.64
2023-06-29T03:05:11.089Z,15.58
2023-06-29T03:06:11.089Z,15.61
2023-06-29T03:07:11.108Z,15.57
2023-06-29T03:08:11.082Z,15.61
2023-06-29T03:09:11.083Z,15.58
2023-06-29T03:10:11.082Z,15.60
2023-06-29T03:11:11.087Z,15.64
2023-06-29T03:12:11.100Z,15.62
2023-06-29T03:13:11.079Z,15.60
2023-06-29T03:14:11.083Z,15.64
2023-06-29T03:15:11.098Z,15.66
2023-06-29T03:16:11.399Z,15.67
2023-06-29T03:17:11.117Z,15.70
2023-06-29T03:18:11.099Z,15.74
2023-06-29T03:19:11.099Z,15.70
2023-06-29T03:20:11.116Z,15.66
2023-06-29T03:21:18.034Z,15.65
2023-06-29T03:22:13.080Z,15.61
2023-06-29T03:23:11.101Z,15.63
2023-06-29T03:24:11.094Z,15.68
2023-06-29T03:25:12.087Z,15.68
2023-06-29T03:26:11.092Z,15.67
2023-06-29T03:27:11.086Z,15.68
2023-06-29T03:28:11.101Z,15.65
2023-06-29T03:29:11.099Z,15.65
2023-06-29T03:30:11.089Z,15.63
2023-06-29T03:31:11.117Z,15.60
2023-06-29T03:32:11.091Z,15.53
2023-06-29T03:33:11.096Z,15.55
2023-06-29T03:34:11.094Z,15.49
2023-06-29T03:35:12.088Z,15.43
2023-06-29T03:36:11.097Z,15.39
2023-06-29T03:37:11.095Z,15.38
2023-06-29T03:38:13.090Z,15.35
2023-06-29T03:39:11.091Z,15.38
2023-06-29T03:40:11.101Z,15.36
2023-06-29T03:41:11.099Z,15.29
2023-06-29T03:42:11.111Z,15.27
2023-06-29T03:43:11.101Z,15.31
2023-06-29T03:44:11.086Z,15.26
2023-06-29T03:45:11.102Z,15.28
2023-06-29T03:46:11.146Z,15.18
2023-06-29T03:47:11.089Z,15.20
2023-06-29T03:48:11.163Z,15.21
2023-06-29T03:49:11.128Z,15.25
2023-06-29T03:50:11.099Z,15.23
2023-06-29T03:51:11.110Z,15.17
2023-06-29T03:52:11.098Z,15.23
2023-06-29T03:53:11.129Z,15.23
2023-06-29T03:54:11.115Z,15.26
2023-06-29T03:55:11.113Z,15.19
2023-06-29T03:56:11.110Z,15.20
2023-06-29T03:57:11.104Z,15.18
2023-06-29T03:58:11.100Z,15.19
2023-06-29T03:59:11.090Z,15.23
2023-06-29T04:00:11.090Z,15.21
2023-06-29T04:01:11.069Z,15.23
2023-06-29T04:02:12.608Z,15.20
2023-06-29T04:03:11.136Z,15.12
2023-06-29T04:04:11.075Z,15.12
2023-06-29T04:05:11.061Z,15.14
2023-06-29T04:06:11.063Z,15.19
2023-06-29T04:07:11.076Z,15.19
2023-06-29T04:08:11.062Z,15.17
2023-06-29T04:09:11.072Z,15.19
2023-06-29T04:10:11.073Z,15.15
2023-06-29T04:11:12.621Z,15.14
2023-06-29T04:12:11.075Z,15.11
2023-06-29T04:13:11.068Z,15.13
2023-06-29T04:14:11.066Z,15.10
2023-06-29T04:15:11.064Z,15.13
2023-06-29T04:16:11.100Z,15.12
2023-06-29T04:17:11.063Z,15.14
2023-06-29T04:18:11.090Z,15.15
2023-06-29T04:19:11.085Z,15.13
2023-06-29T04:20:11.079Z,15.11
2023-06-29T04:21:11.069Z,15.08
2023-06-29T04:22:11.077Z,15.10
2023-06-29T04:23:11.066Z,15.04
2023-06-29T04:24:11.070Z,15.02
2023-06-29T04:25:11.083Z,15.05
2023-06-29T04:26:11.069Z,15.06
2023-06-29T04:27:11.072Z,15.08
2023-06-29T04:28:11.069Z,15.07
2023-06-29T04:29:11.068Z,15.08
2023-06-29T04:30:11.098Z,15.06
2023-06-29T04:31:11.127Z,15.06
2023-06-29T04:32:11.068Z,14.97
2023-06-29T04:33:14.071Z,14.92
2023-06-29T04:34:11.078Z,14.97
2023-06-29T04:35:11.078Z,14.93
2023-06-29T04:36:11.070Z,14.94
2023-06-29T04:37:11.115Z,14.85
2023-06-29T04:38:11.070Z,14.88
2023-06-29T04:39:11.067Z,14.88
2023-06-29T04:40:13.070Z,14.91
2023-06-29T04:41:11.070Z,14.93
2023-06-29T04:42:15.072Z,14.99
2023-06-29T04:43:11.071Z,15.02
2023-06-29T04:44:11.069Z,14.96
2023-06-29T04:45:13.064Z,14.95
2023-06-29T04:46:11.093Z,14.96
2023-06-29T04:47:11.080Z,15.01
2023-06-29T04:48:11.097Z,14.98
2023-06-29T04:49:11.123Z,14.97
2023-06-29T04:50:11.074Z,15.02
2023-06-29T04:51:11.104Z,15.02
2023-06-29T04:52:11.094Z,14.96
2023-06-29T04:53:15.076Z,15.01
2023-06-29T04:54:12.074Z,14.99
2023-06-29T04:55:11.090Z,15.00
2023-06-29T04:56:11.090Z,15.00
2023-06-29T04:57:11.075Z,14.96
2023-06-29T04:58:11.076Z,14.94
2023-06-29T04:59:11.071Z,14.94
2023-06-29T05:00:12.128Z,14.97
2023-06-29T05:01:11.129Z,14.98
2023-06-29T05:02:11.085Z,14.99
2023-06-29T05:03:11.143Z,14.94
2023-06-29T05:04:11.074Z,14.91
2023-06-29T05:05:11.090Z,14.88
2023-06-29T05:06:11.079Z,14.91
2023-06-29T05:07:11.096Z,14.86
2023-06-29T05:08:11.085Z,14.83
2023-06-29T05:09:11.075Z,14.81
2023-06-29T05:10:11.072Z,14.83
2023-06-29T05:11:11.076Z,14.83
2023-06-29T05:12:11.078Z,14.83
2023-06-29T05:13:11.074Z,14.81
2023-06-29T05:14:11.087Z,14.82
2023-06-29T05:15:11.075Z,14.81
2023-06-29T05:16:11.076Z,14.82
2023-06-29T05:17:11.106Z,14.80
2023-06-29T05:18:11.167Z,14.76
2023-06-29T05:19:11.075Z,14.74
2023-06-29T05:20:11.082Z,14.70
2023-06-29T05:21:11.087Z,14.71
2023-06-29T05:22:11.083Z,14.71
2023-06-29T05:23:11.081Z,14.72
2023-06-29T05:24:11.080Z,14.66
2023-06-29T05:25:11.100Z,14.67
2023-06-29T05:26:11.093Z,14.70
2023-06-29T05:27:11.101Z,14.64
2023-06-29T05:28:11.080Z,14.66
2023-06-29T05:29:11.080Z,14.63
2023-06-29T05:30:11.081Z,14.63
2023-06-29T05:31:11.110Z,14.63
2023-06-29T05:32:11.091Z,14.60
2023-06-29T05:33:11.106Z,14.60
2023-06-29T05:34:11.103Z,14.66
2023-06-29T05:35:11.102Z,14.66
2023-06-29T05:36:11.081Z,14.64
2023-06-29T05:37:11.082Z,14.67
2023-06-29T05:38:11.092Z,14.70
2023-06-29T05:39:11.078Z,14.72
2023-06-29T05:40:11.172Z,14.75
2023-06-29T05:41:11.088Z,14.77
2023-06-29T05:42:11.081Z,14.79
2023-06-29T05:43:11.088Z,14.77
2023-06-29T05:44:11.084Z,14.82
2023-06-29T05:45:11.100Z,14.85
2023-06-29T05:46:11.089Z,14.86
2023-06-29T05:47:11.078Z,14.86
2023-06-29T05:48:11.081Z,14.79
2023-06-29T05:49:11.076Z,14.81
2023-06-29T05:50:11.074Z,14.80
2023-06-29T05:51:11.077Z,14.82
2023-06-29T05:52:11.074Z,14.88
2023-06-29T05:53:11.081Z,14.95
2023-06-29T05:54:11.082Z,15.00
2023-06-29T05:55:11.075Z,15.03
2023-06-29T05:56:11.081Z,15.09
2023-06-29T05:57:11.089Z,15.14
2023-06-29T05:58:11.081Z,15.17
2023-06-29T05:59:11.084Z,15.25
2023-06-29T06:00:13.090Z,15.28
2023-06-29T06:01:11.113Z,15.28
2023-06-29T06:02:11.087Z,15.28
2023-06-29T06:03:11.150Z,15.32
2023-06-29T06:04:11.082Z,15.33
2023-06-29T06:05:12.089Z,15.34
2023-06-29T06:06:11.095Z,15.39
2023-06-29T06:07:11.120Z,15.33
2023-06-29T06:08:11.711Z,15.41
2023-06-29T06:09:11.087Z,15.44
2023-06-29T06:10:11.081Z,15.43
2023-06-29T06:11:11.087Z,15.42
2023-06-29T06:12:11.089Z,15.40
2023-06-29T06:13:11.083Z,15.48
2023-06-29T06:14:11.088Z,15.54
2023-06-29T06:15:11.089Z,15.58
2023-06-29T06:16:11.138Z,15.58
2023-06-29T06:17:11.088Z,15.48
2023-06-29T06:18:11.186Z,15.51
2023-06-29T06:19:11.086Z,15.50
2023-06-29T06:20:11.095Z,15.55
2023-06-29T06:21:11.089Z,15.61
2023-06-29T06:22:11.085Z,15.64
2023-06-29T06:23:11.100Z,15.69
2023-06-29T06:24:11.085Z,15.70
2023-06-29T06:25:11.100Z,15.72
2023-06-29T06:26:11.095Z,15.72
2023-06-29T06:27:11.084Z,15.72
2023-06-29T06:28:11.141Z,15.69
2023-06-29T06:29:11.095Z,15.73
2023-06-29T06:30:11.085Z,15.76
2023-06-29T06:31:24.167Z,15.79
2023-06-29T06:32:13.173Z,15.76
2023-06-29T06:33:11.090Z,15.80
2023-06-29T06:34:11.106Z,15.78
2023-06-29T06:35:11.137Z,15.81
2023-06-29T06:36:11.122Z,15.81
2023-06-29T06:37:11.085Z,15.88
2023-06-29T06:38:11.088Z,15.88
2023-06-29T06:39:11.093Z,15.89
2023-06-29T06:40:13.130Z,15.91
2023-06-29T06:41:11.091Z,15.92
2023-06-29T06:42:11.094Z,15.94
2023-06-29T06:43:11.087Z,15.99
2023-06-29T06:44:11.093Z,16.03
2023-06-29T06:45:11.105Z,16.03
2023-06-29T06:46:11.127Z,16.08
2023-06-29T06:47:11.097Z,16.07
2023-06-29T06:48:12.118Z,16.09
2023-06-29T06:49:11.088Z,16.12
2023-06-29T06:50:11.087Z,16.11
2023-06-29T06:51:11.091Z,16.15
2023-06-29T06:52:11.088Z,16.23
2023-06-29T06:53:11.090Z,16.27
2023-06-29T06:54:11.098Z,16.30
2023-06-29T06:55:11.083Z,16.34
2023-06-29T06:56:11.095Z,16.32
2023-06-29T06:57:11.090Z,16.36
2023-06-29T06:58:11.082Z,16.36
2023-06-29T06:59:11.093Z,16.40
2023-06-29T07:00:11.828Z,16.36
2023-06-29T07:01:11.076Z,16.41
2023-06-29T07:02:11.088Z,16.46
2023-06-29T07:03:11.136Z,16.54
2023-06-29T07:04:11.055Z,16.54
2023-06-29T07:05:11.067Z,16.55
2023-06-29T07:06:11.063Z,16.59
2023-06-29T07:07:11.098Z,16.67
2023-06-29T07:08:11.064Z,16.68
2023-06-29T07:09:13.678Z,16.72
2023-06-29T07:10:11.068Z,16.80
2023-06-29T07:11:11.063Z,16.86
2023-06-29T07:12:11.080Z,16.90
2023-06-29T07:13:11.059Z,16.83
2023-06-29T07:14:11.065Z,16.84
2023-06-29T07:15:11.058Z,16.81
2023-06-29T07:16:11.068Z,16.87
2023-06-29T07:17:11.117Z,16.89
2023-06-29T07:18:11.064Z,16.96
2023-06-29T07:24:11.069Z,16.93
2023-06-29T07:25:11.061Z,16.93
2023-06-29T07:26:11.065Z,16.90
2023-06-29T07:27:11.066Z,16.96
2023-06-29T07:28:11.076Z,17.00
2023-06-29T07:29:11.071Z,17.01
2023-06-29T07:30:11.072Z,16.92
2023-06-29T07:31:11.155Z,16.87
2023-06-29T07:32:11.071Z,16.76
2023-06-29T07:33:11.120Z,16.74
2023-06-29T07:34:11.065Z,16.70
2023-06-29T07:35:11.081Z,16.64
2023-06-29T07:36:11.073Z,16.68
2023-06-29T07:37:11.069Z,16.63
2023-06-29T07:38:11.127Z,16.63
2023-06-29T07:39:11.073Z,16.69
2023-06-29T07:40:11.066Z,16.70
2023-06-29T07:41:11.075Z,16.70
2023-06-29T07:42:11.087Z,16.83
2023-06-29T07:43:11.067Z,16.95
2023-06-29T07:44:11.074Z,17.00
2023-06-29T07:45:11.106Z,17.07
2023-06-29T07:46:11.245Z,17.13
2023-06-29T07:47:11.090Z,17.18
2023-06-29T07:48:11.178Z,17.25
2023-06-29T07:49:11.076Z,17.32
2023-06-29T07:50:11.073Z,17.34
2023-06-29T07:51:11.087Z,17.33
2023-06-29T07:52:11.071Z,17.31
2023-06-29T07:53:11.078Z,17.37
2023-06-29T07:54:11.076Z,17.47
2023-06-29T07:55:11.069Z,17.48
2023-06-29T07:56:11.068Z,17.54
2023-06-29T07:59:11.078Z,17.65
2023-06-29T08:00:11.092Z,17.70
2023-06-29T08:01:11.138Z,17.72
2023-06-29T08:02:11.241Z,17.70
2023-06-29T08:03:11.100Z,17.68
2023-06-29T08:04:11.292Z,17.65
2023-06-29T08:07:11.493Z,17.69
2023-06-29T08:08:11.232Z,17.62
2023-06-29T08:09:11.086Z,17.67
2023-06-29T08:10:11.140Z,17.70
2023-06-29T08:11:13.071Z,17.73
2023-06-29T08:12:11.075Z,17.73
2023-06-29T08:13:11.090Z,17.74
2023-06-29T08:14:11.087Z,17.77
2023-06-29T08:15:11.074Z,17.79
2023-06-29T08:16:11.140Z,17.83
2023-06-29T08:17:11.081Z,17.86
2023-06-29T08:18:11.143Z,17.85
2023-06-29T08:19:11.134Z,17.96
2023-06-29T08:20:11.073Z,17.85
2023-06-29T08:21:11.077Z,17.96
2023-06-29T08:22:11.077Z,17.97
2023-06-29T08:23:11.074Z,18.07
2023-06-29T08:24:11.077Z,18.15
2023-06-29T08:25:11.084Z,18.17
2023-06-29T08:26:11.088Z,18.21
2023-06-29T08:27:11.078Z,18.24
2023-06-29T08:28:11.099Z,18.28
2023-06-29T08:29:11.074Z,18.30
2023-06-29T08:30:11.087Z,18.31
2023-06-29T08:31:11.134Z,18.38
2023-06-29T08:32:13.149Z,18.45
2023-06-29T08:33:11.190Z,18.53
2023-06-29T08:34:11.148Z,18.62
2023-06-29T08:35:11.082Z,18.67
2023-06-29T08:36:11.086Z,18.68
2023-06-29T08:37:11.087Z,18.68
2023-06-29T08:38:11.090Z,18.81
2023-06-29T08:39:11.081Z,18.91
2023-06-29T08:40:11.092Z,18.96
2023-06-29T08:41:11.118Z,18.96
2023-06-29T08:42:11.086Z,19.00
2023-06-29T08:43:11.088Z,19.04
2023-06-29T08:44:11.078Z,19.04
2023-06-29T08:45:11.081Z,19.10
2023-06-29T08:46:11.179Z,19.21
2023-06-29T08:47:11.081Z,19.19
2023-06-29T08:48:11.146Z,19.13
2023-06-29T08:49:11.098Z,19.18
2023-06-29T08:50:11.081Z,19.34
2023-06-29T08:51:11.083Z,19.48
2023-06-29T08:52:16.084Z,19.52
2023-06-29T08:53:11.113Z,19.53
2023-06-29T08:54:11.102Z,19.51
2023-06-29T08:55:11.100Z,19.49
2023-06-29T08:56:11.080Z,19.53
2023-06-29T08:57:11.078Z,19.63
2023-06-29T08:58:11.087Z,19.59
2023-06-29T08:59:11.083Z,19.64
2023-06-29T09:00:11.079Z,19.72
2023-06-29T09:01:11.169Z,19.82
2023-06-29T09:02:11.119Z,19.94
2023-06-29T09:03:11.204Z,20.07
2023-06-29T09:04:11.174Z,20.23
2023-06-29T09:05:12.081Z,20.24
2023-06-29T09:06:11.079Z,20.36
2023-06-29T09:07:11.165Z,20.53
2023-06-29T09:08:11.116Z,20.64
2023-06-29T09:09:11.077Z,20.60
2023-06-29T09:10:13.132Z,20.75
2023-06-29T09:11:11.093Z,20.85
2023-06-29T09:12:11.084Z,21.02
2023-06-29T09:13:11.084Z,21.11
2023-06-29T09:14:11.082Z,21.07
2023-06-29T09:15:11.090Z,21.02
2023-06-29T09:16:11.112Z,21.12
2023-06-29T09:17:17.084Z,21.29
2023-06-29T09:18:11.131Z,21.35
2023-06-29T09:19:11.084Z,21.52
2023-06-29T09:20:15.090Z,21.49
2023-06-29T09:21:11.096Z,21.34
2023-06-29T09:22:11.090Z,21.41
2023-06-29T09:23:13.086Z,21.21
2023-06-29T09:24:12.083Z,21.15
2023-06-29T09:25:19.680Z,20.95
2023-06-29T09:26:13.197Z,20.93
2023-06-29T09:27:12.092Z,20.85
2023-06-29T09:28:11.090Z,20.85
2023-06-29T09:29:11.100Z,20.65
2023-06-29T09:30:15.088Z,20.51
2023-06-29T09:31:11.101Z,20.48
2023-06-29T09:32:15.094Z,20.46
2023-06-29T09:33:13.111Z,20.34
2023-06-29T09:34:19.098Z,20.56
2023-06-29T09:35:11.094Z,20.68
2023-06-29T09:36:11.109Z,20.84
2023-06-29T09:37:12.091Z,20.90
2023-06-29T09:38:11.095Z,20.93
2023-06-29T09:39:11.097Z,20.97
2023-06-29T09:40:16.095Z,20.92
2023-06-29T09:41:13.509Z,20.91
2023-06-29T09:42:11.113Z,21.01
2023-06-29T09:43:17.103Z,20.94
2023-06-29T09:44:11.093Z,20.86
2023-06-29T09:45:12.098Z,20.79
2023-06-29T09:46:11.136Z,20.71
2023-06-29T09:49:11.302Z,20.98
2023-06-29T09:50:17.219Z,21.12
2023-06-29T09:51:11.344Z,21.26
2023-06-29T09:52:11.126Z,21.44
2023-06-29T09:53:11.225Z,21.49
2023-06-29T09:54:16.094Z,21.53
2023-06-29T09:55:11.123Z,21.59
2023-06-29T09:56:11.107Z,21.58
2023-06-29T09:57:11.100Z,21.66
2023-06-29T09:58:11.098Z,21.73
2023-06-29T09:59:11.115Z,21.71
2023-06-29T10:00:14.096Z,21.82
2023-06-29T10:01:11.168Z,21.91
2023-06-29T10:02:11.094Z,22.00
2023-06-29T10:03:11.127Z,22.13
2023-06-29T10:04:11.096Z,22.35
2023-06-29T10:05:13.067Z,22.46
2023-06-29T10:06:13.075Z,22.62
2023-06-29T10:07:15.101Z,22.60
2023-06-29T10:08:13.072Z,22.56
2023-06-29T10:09:11.066Z,22.41
2023-06-29T10:10:11.067Z,22.27
2023-06-29T10:11:11.064Z,22.22
2023-06-29T10:12:12.066Z,22.05
2023-06-29T10:13:11.063Z,21.90
2023-06-29T10:14:11.072Z,21.84
2023-06-29T10:15:13.070Z,21.77
2023-06-29T10:16:11.067Z,21.85
2023-06-29T10:17:18.123Z,21.91
2023-06-29T10:18:17.130Z,21.75
2023-06-29T10:19:19.066Z,21.82
2023-06-29T10:20:12.097Z,22.02
2023-06-29T10:21:11.068Z,22.30
2023-06-29T10:22:12.072Z,22.52
2023-06-29T10:23:11.064Z,22.65
2023-06-29T10:24:12.068Z,22.81
2023-06-29T10:25:14.084Z,22.62
2023-06-29T10:26:11.068Z,22.54
2023-06-29T10:27:11.074Z,22.48
2023-06-29T10:28:11.088Z,22.47
2023-06-29T10:29:11.084Z,22.76
2023-06-29T10:30:11.069Z,22.90
2023-06-29T10:31:11.083Z,23.04
2023-06-29T10:32:11.068Z,23.17
2023-06-29T10:33:12.158Z,23.11
2023-06-29T10:34:11.074Z,22.93
2023-06-29T10:35:16.085Z,22.83
2023-06-29T10:36:14.189Z,22.53
2023-06-29T10:37:11.081Z,22.19
2023-06-29T10:38:13.078Z,22.26
2023-06-29T10:39:19.075Z,22.46
2023-06-29T10:40:15.070Z,22.30
2023-06-29T10:41:15.880Z,22.28
2023-06-29T10:42:13.073Z,22.07
2023-06-29T10:43:11.076Z,21.92
2023-06-29T10:44:11.080Z,21.86
2023-06-29T10:45:21.080Z,21.70
2023-06-29T10:46:14.111Z,21.58
2023-06-29T10:47:19.076Z,21.35
2023-06-29T10:48:18.146Z,21.28
2023-06-29T10:49:17.092Z,21.16
2023-06-29T10:50:17.095Z,20.97
2023-06-29T10:51:12.073Z,20.94
2023-06-29T10:52:11.103Z,20.86
2023-06-29T10:53:14.084Z,20.72
2023-06-29T10:54:11.162Z,20.58
2023-06-29T10:55:18.076Z,20.46
2023-06-29T10:56:19.076Z,20.40
2023-06-29T10:57:11.075Z,20.30
2023-06-29T10:58:15.099Z,20.21
2023-06-29T10:59:13.100Z,20.24
2023-06-29T11:00:11.586Z,20.19
2023-06-29T11:01:11.095Z,20.20
2023-06-29T11:02:11.180Z,20.25
2023-06-29T11:03:12.359Z,20.31
2023-06-29T11:04:11.207Z,20.37
2023-06-29T11:05:15.075Z,20.39
2023-06-29T11:06:14.421Z,20.36
2023-06-29T11:07:13.126Z,20.29
2023-06-29T11:08:11.095Z,20.32
2023-06-29T11:09:13.103Z,20.35
2023-06-29T11:10:11.073Z,20.61
2023-06-29T11:11:15.078Z,20.56
2023-06-29T11:12:13.094Z,20.63
2023-06-29T11:13:11.076Z,20.89
2023-06-29T11:14:12.082Z,20.94
2023-06-29T11:15:20.540Z,21.05
2023-06-29T11:16:14.194Z,21.36
2023-06-29T11:17:11.088Z,21.67
2023-06-29T11:18:11.115Z,21.93
2023-06-29T11:19:13.463Z,22.21
2023-06-29T11:20:16.076Z,22.51
2023-06-29T11:21:14.080Z,22.76
2023-06-29T11:22:11.077Z,22.88
2023-06-29T11:23:12.077Z,22.91
2023-06-29T11:24:11.274Z,22.98
2023-06-29T11:25:11.090Z,22.98
2023-06-29T11:26:11.083Z,22.90
2023-06-29T11:27:11.079Z,22.75
2023-06-29T11:28:11.081Z,22.58
2023-06-29T11:29:11.094Z,22.32
2023-06-29T11:30:12.078Z,22.03
2023-06-29T11:31:11.132Z,21.92
2023-06-29T11:32:14.192Z,21.96
2023-06-29T11:33:24.371Z,22.01
2023-06-29T11:34:16.046Z,22.01
2023-06-29T11:35:11.080Z,22.19
2023-06-29T11:36:11.155Z,21.98
2023-06-29T11:37:15.971Z,21.98
2023-06-29T11:38:13.057Z,21.93
2023-06-29T11:39:11.126Z,21.85
2023-06-29T11:40:19.093Z,22.07
2023-06-29T11:41:11.219Z,22.06
2023-06-29T11:42:11.193Z,21.96
2023-06-29T11:43:11.081Z,21.79
2023-06-29T11:44:12.554Z,21.60
2023-06-29T11:45:11.088Z,21.52
2023-06-29T11:46:11.173Z,21.49
2023-06-29T11:48:11.138Z,21.41
2023-06-29T11:49:11.093Z,21.49
2023-06-29T11:50:12.090Z,21.66
2023-06-29T11:51:11.098Z,21.87
2023-06-29T11:52:11.085Z,22.01
2023-06-29T11:53:11.090Z,22.11
2023-06-29T11:54:11.094Z,22.28
2023-06-29T11:55:11.083Z,22.56
2023-06-29T11:56:19.097Z,22.68
2023-06-29T11:57:11.093Z,22.84
2023-06-29T11:58:13.087Z,22.75
2023-06-29T11:59:14.093Z,22.89
2023-06-29T12:00:23.104Z,22.61
2023-06-29T12:01:17.084Z,22.81
2023-06-29T12:02:11.087Z,22.88
2023-06-29T12:03:11.323Z,22.91
2023-06-29T12:04:11.147Z,22.87
2023-06-29T12:05:11.213Z,22.87
2023-06-29T12:06:11.093Z,22.94
2023-06-29T12:07:11.178Z,22.94
2023-06-29T12:08:11.379Z,22.75
2023-06-29T12:09:13.197Z,22.70
2023-06-29T12:10:17.097Z,22.71
2023-06-29T12:11:17.121Z,22.63
2023-06-29T12:12:11.093Z,22.72
2023-06-29T12:13:12.099Z,22.91
2023-06-29T12:14:13.096Z,23.04
2023-06-29T12:15:16.502Z,23.07
2023-06-29T12:18:15.979Z,22.99
2023-06-29T12:19:15.352Z,23.03
2023-06-29T12:20:15.351Z,22.80
2023-06-29T12:21:11.297Z,22.69
2023-06-29T12:22:15.278Z,22.89
2023-06-29T12:23:12.091Z,23.06
2023-06-29T12:24:11.100Z,23.20
2023-06-29T12:25:13.092Z,23.35
2023-06-29T12:26:11.100Z,23.35
2023-06-29T12:27:11.092Z,23.27
2023-06-29T12:28:11.108Z,23.06
2023-06-29T12:29:11.099Z,22.96
2023-06-29T12:30:12.249Z,22.79
2023-06-29T12:31:11.133Z,22.91
2023-06-29T12:32:11.095Z,22.95
2023-06-29T12:33:11.095Z,22.82
2023-06-29T12:34:11.112Z,22.64
2023-06-29T12:35:12.700Z,22.63
2023-06-29T12:36:11.098Z,22.82
2023-06-29T12:37:11.098Z,22.87
2023-06-29T12:38:11.092Z,23.14
2023-06-29T12:39:11.095Z,23.22
2023-06-29T12:40:11.143Z,23.15
2023-06-29T12:41:11.094Z,23.12
2023-06-29T12:42:11.100Z,23.15
2023-06-29T12:43:11.100Z,22.96
2023-06-29T12:44:11.094Z,22.95
2023-06-29T12:45:11.101Z,22.91
2023-06-29T12:46:11.094Z,22.81
2023-06-29T12:47:11.141Z,22.70
2023-06-29T12:48:11.116Z,22.83
2023-06-29T12:49:11.099Z,22.79
2023-06-29T12:50:11.156Z,22.65
2023-06-29T12:51:11.095Z,22.72
2023-06-29T12:52:11.092Z,22.73
2023-06-29T12:53:11.109Z,22.80
2023-06-29T12:54:11.095Z,22.93
2023-06-29T12:55:11.094Z,23.05
2023-06-29T12:56:11.105Z,23.04
2023-06-29T12:57:11.102Z,23.06
2023-06-29T12:58:11.095Z,22.94
2023-06-29T12:59:11.107Z,22.99
2023-06-29T13:00:11.130Z,23.07
2023-06-29T13:01:11.108Z,23.08
2023-06-29T13:02:11.148Z,22.97
2023-06-29T13:03:15.202Z,22.97
2023-06-29T13:04:11.208Z,22.97
2023-06-29T13:05:11.058Z,23.07
2023-06-29T13:06:11.064Z,23.05